createdAt,value
2019-01-18T00:01:54.763Z,2.90
2019-01-18T00:04:25.008Z,2.93
2019-01-18T00:06:55.179Z,2.87
2019-01-18T00:09:25.781Z,2.80
2019-01-18T00:11:55.933Z,3.10
2019-01-18T00:14:26.145Z,2.90
2019-01-18T00:16:56.381Z,2.90
2019-01-18T00:19:26.848Z,2.93
2019-01-18T00:21:57.153Z,3.43
2019-01-18T00:24:27.627Z,3.30
2019-01-18T00:26:58.317Z,2.63
2019-01-18T00:29:29.707Z,3.10
2019-01-18T00:32:00.123Z,4.07
2019-01-18T00:34:30.304Z,3.50
2019-01-18T00:37:00.550Z,3.87
2019-01-18T00:39:31.504Z,3.53
2019-01-18T00:42:01.729Z,3.93
2019-01-18T00:44:31.871Z,4.27
2019-01-18T00:47:02.289Z,4.43
2019-01-18T00:49:32.807Z,4.20
2019-01-18T00:52:02.994Z,3.53
2019-01-18T00:54:33.151Z,3.63
2019-01-18T00:57:03.795Z,3.53
2019-01-18T00:59:36.353Z,3.70
2019-01-18T01:02:06.366Z,3.33
2019-01-18T01:04:36.562Z,3.47
2019-01-18T01:07:07.431Z,3.50
2019-01-18T01:09:37.777Z,3.47
2019-01-18T01:12:09.422Z,3.67
2019-01-18T01:14:39.666Z,3.40
2019-01-18T01:17:09.900Z,3.40
2019-01-18T01:19:40.220Z,4.10
2019-01-18T01:22:10.684Z,4.30
2019-01-18T01:24:40.991Z,4.30
2019-01-18T01:27:12.055Z,4.30
2019-01-18T01:29:43.441Z,4.10
2019-01-18T01:32:13.727Z,4.20
2019-01-18T01:34:44.364Z,3.67
2019-01-18T01:37:14.795Z,4.00
2019-01-18T01:39:45.292Z,3.20
2019-01-18T01:42:15.415Z,3.00
2019-01-18T01:44:45.511Z,2.80
2019-01-18T01:47:16.027Z,2.43
2019-01-18T01:49:46.643Z,2.93
2019-01-18T01:52:16.852Z,3.30
2019-01-18T01:54:47.515Z,3.50
2019-01-18T01:57:17.728Z,3.40
2019-01-18T01:59:49.876Z,2.90
2019-01-18T02:02:20.486Z,3.03
2019-01-18T02:04:50.709Z,3.27
2019-01-18T02:07:20.906Z,3.80
2019-01-18T02:09:51.456Z,3.97
2019-01-18T02:12:21.668Z,3.93
2019-01-18T02:14:52.199Z,3.80
2019-01-18T02:17:22.549Z,4.50
2019-01-18T02:19:53.099Z,4.20
2019-01-18T02:22:23.371Z,3.90
2019-01-18T02:24:56.278Z,4.00
2019-01-18T02:27:26.751Z,3.83
2019-01-18T02:29:58.614Z,3.50
2019-01-18T02:32:30.133Z,3.67
2019-01-18T02:35:00.690Z,3.20
2019-01-18T02:37:31.653Z,3.53
2019-01-18T02:40:02.019Z,3.63
2019-01-18T02:42:32.174Z,4.53
2019-01-18T02:45:02.373Z,4.70
2019-01-18T02:47:32.770Z,5.30
2019-01-18T02:50:03.017Z,4.33
2019-01-18T02:52:33.221Z,4.93
2019-01-18T02:55:03.356Z,5.47
2019-01-18T02:57:35.929Z,4.20
2019-01-18T03:00:10.136Z,3.83
2019-01-18T03:02:40.349Z,3.67
2019-01-18T03:05:11.469Z,3.40
2019-01-18T03:07:41.882Z,3.40
2019-01-18T03:10:18.924Z,3.37
2019-01-18T03:12:49.121Z,3.60
2019-01-18T03:15:19.424Z,3.37
2019-01-18T03:17:51.125Z,3.60
2019-01-18T03:20:21.359Z,3.43
2019-01-18T03:22:51.578Z,3.80
2019-01-18T03:25:31.214Z,3.37
2019-01-18T03:28:01.414Z,2.90
2019-01-18T03:30:31.613Z,2.87
2019-01-18T03:33:02.196Z,2.80
2019-01-18T03:35:32.418Z,3.43
2019-01-18T03:38:02.612Z,2.67
2019-01-18T03:40:32.848Z,3.00
2019-01-18T03:43:03.600Z,2.80
2019-01-18T03:45:33.840Z,2.97
2019-01-18T03:48:04.473Z,2.70
2019-01-18T03:50:35.008Z,3.27
2019-01-18T03:53:05.459Z,3.10
2019-01-18T03:55:35.732Z,3.10
2019-01-18T03:58:05.998Z,2.90
2019-01-18T04:00:36.499Z,3.10
2019-01-18T04:03:06.713Z,2.80
2019-01-18T04:05:36.925Z,2.70
2019-01-18T04:08:07.178Z,3.00
2019-01-18T04:10:37.586Z,3.10
2019-01-18T04:13:08.141Z,3.12
2019-01-18T04:15:38.740Z,2.90
2019-01-18T04:18:09.252Z,3.30
2019-01-18T04:20:39.535Z,3.13
2019-01-18T04:23:09.797Z,3.40
2019-01-18T04:25:40.335Z,2.87
2019-01-18T04:28:10.953Z,3.60
2019-01-18T04:30:41.150Z,3.30
2019-01-18T04:33:11.695Z,3.43
2019-01-18T04:35:41.865Z,3.40
2019-01-18T04:38:12.059Z,3.00
2019-01-18T04:40:42.247Z,2.97
2019-01-18T04:43:12.439Z,3.10
2019-01-18T04:45:42.665Z,2.83
2019-01-18T04:48:13.190Z,3.10
2019-01-18T04:50:43.866Z,3.53
2019-01-18T04:53:14.386Z,3.20
2019-01-18T04:55:44.971Z,3.50
2019-01-18T04:58:15.201Z,3.87
2019-01-18T05:00:45.407Z,3.30
2019-01-18T05:03:15.658Z,3.13
2019-01-18T05:05:45.891Z,3.50
2019-01-18T05:08:16.023Z,3.20
2019-01-18T05:10:46.242Z,3.20
2019-01-18T05:13:16.418Z,3.43
2019-01-18T05:15:46.618Z,3.20
2019-01-18T05:18:16.774Z,3.80
2019-01-18T05:20:47.085Z,3.90
2019-01-18T05:23:17.319Z,3.50
2019-01-18T05:25:47.876Z,3.53
2019-01-18T05:28:18.482Z,3.40
2019-01-18T05:30:49.143Z,3.50
2019-01-18T05:33:19.372Z,3.60
2019-01-18T05:35:49.599Z,3.60
2019-01-18T05:38:20.160Z,3.93
2019-01-18T05:40:50.332Z,3.63
2019-01-18T05:43:20.722Z,3.30
2019-01-18T05:45:51.194Z,3.47
2019-01-18T05:48:21.616Z,3.73
2019-01-18T05:50:51.824Z,3.33
2019-01-18T05:53:22.530Z,3.60
2019-01-18T05:55:52.938Z,3.67
2019-01-18T05:58:23.183Z,3.80
2019-01-18T06:01:18.132Z,3.83
2019-01-18T06:03:48.389Z,3.47
2019-01-18T06:06:18.562Z,3.43
2019-01-18T06:08:49.569Z,3.40
2019-01-18T06:11:19.773Z,3.10
2019-01-18T06:13:49.968Z,3.33
2019-01-18T06:16:20.554Z,3.53
2019-01-18T06:18:51.307Z,3.30
2019-01-18T06:21:21.630Z,3.90
2019-01-18T06:23:51.854Z,3.40
2019-01-18T06:26:22.011Z,3.90
2019-01-18T06:28:52.456Z,3.80
2019-01-18T06:31:22.944Z,4.10
2019-01-18T06:33:53.182Z,3.37
2019-01-18T06:36:23.401Z,3.83
2019-01-18T06:38:53.657Z,4.47
2019-01-18T06:41:33.069Z,4.20
2019-01-18T06:44:03.316Z,3.80
2019-01-18T06:46:33.804Z,3.73
2019-01-18T06:49:05.439Z,4.10
2019-01-18T06:51:36.074Z,3.67
2019-01-18T06:54:06.636Z,4.00
2019-01-18T06:56:37.521Z,3.80
2019-01-18T06:59:08.463Z,4.30
2019-01-18T07:01:38.695Z,3.67
2019-01-18T07:04:08.819Z,4.37
2019-01-18T07:06:39.077Z,6.23
2019-01-18T07:09:09.811Z,5.90
2019-01-18T07:11:40.333Z,5.80
2019-01-18T07:14:10.489Z,4.97
2019-01-18T07:16:41.073Z,5.30
2019-01-18T07:19:11.579Z,6.80
2019-01-18T07:21:41.851Z,5.27
2019-01-18T07:24:12.082Z,5.40
2019-01-18T07:26:42.439Z,5.40
2019-01-18T07:29:12.888Z,6.10
2019-01-18T07:31:43.209Z,5.47
2019-01-18T07:34:13.580Z,5.67
2019-01-18T07:36:44.347Z,5.20
2019-01-18T07:39:22.166Z,5.53
2019-01-18T07:41:47.874Z,5.73
2019-01-18T07:44:18.219Z,5.80
2019-01-18T07:46:48.485Z,5.90
2019-01-18T07:49:18.871Z,7.83
2019-01-18T07:51:49.684Z,6.57
2019-01-18T07:54:20.307Z,6.20
2019-01-18T07:56:50.612Z,7.23
2019-01-18T07:59:20.970Z,7.13
2019-01-18T08:01:51.350Z,6.80
2019-01-18T08:04:21.716Z,6.17
2019-01-18T08:06:52.074Z,5.70
2019-01-18T08:09:22.773Z,7.10
2019-01-18T08:11:53.536Z,6.57
2019-01-18T08:14:24.525Z,6.63
2019-01-18T08:16:54.774Z,6.33
2019-01-18T08:19:25.141Z,4.67
2019-01-18T08:21:55.522Z,5.00
2019-01-18T08:24:26.443Z,5.07
2019-01-18T08:26:57.027Z,5.10
2019-01-18T08:29:27.401Z,5.53
2019-01-18T08:31:58.296Z,5.60
2019-01-18T08:34:30.583Z,5.50
2019-01-18T08:37:00.974Z,5.27
2019-01-18T08:39:31.384Z,5.40
2019-01-18T08:42:04.446Z,5.67
2019-01-18T08:44:35.892Z,5.30
2019-01-18T08:47:06.157Z,5.67
2019-01-18T08:49:38.172Z,5.70
2019-01-18T08:52:08.709Z,6.43
2019-01-18T08:54:41.384Z,7.17
2019-01-18T08:57:11.815Z,7.60
2019-01-18T08:59:42.179Z,7.73
2019-01-18T09:02:15.031Z,7.87
2019-01-18T09:04:45.977Z,6.80
2019-01-18T09:07:16.347Z,5.90
2019-01-18T09:09:46.714Z,5.87
2019-01-18T09:12:17.163Z,5.83
2019-01-18T09:14:49.206Z,7.10
2019-01-18T09:17:19.520Z,7.90
2019-01-18T09:19:50.218Z,7.87
2019-01-18T09:22:20.491Z,7.30
2019-01-18T09:24:50.793Z,7.03
2019-01-18T09:27:21.251Z,7.37
2019-01-18T09:29:53.707Z,6.07
2019-01-18T09:32:27.237Z,5.90
2019-01-18T09:34:59.535Z,5.47
2019-01-18T09:37:29.856Z,5.17
2019-01-18T09:40:00.491Z,5.60
2019-01-18T09:42:30.850Z,5.27
2019-01-18T09:45:01.240Z,6.17
2019-01-18T09:47:31.676Z,6.30
2019-01-18T09:50:02.045Z,6.97
2019-01-18T09:52:32.360Z,6.37
2019-01-18T09:55:02.650Z,6.87
2019-01-18T09:57:33.821Z,7.43
2019-01-18T10:00:05.851Z,8.10
2019-01-18T10:02:38.056Z,8.40
2019-01-18T10:05:09.589Z,10.50
2019-01-18T10:07:40.110Z,9.50
2019-01-18T10:10:13.561Z,9.53
2019-01-18T10:12:44.335Z,10.30
2019-01-18T10:15:20.111Z,10.08
2019-01-18T10:17:50.518Z,9.93
2019-01-18T10:20:20.889Z,10.63
2019-01-18T10:22:51.428Z,8.97
2019-01-18T10:25:22.003Z,9.97
2019-01-18T10:27:52.406Z,11.20
2019-01-18T10:30:24.586Z,9.83
2019-01-18T10:32:58.338Z,10.60
2019-01-18T10:35:30.389Z,10.13
2019-01-18T10:38:01.196Z,9.80
2019-01-18T10:40:33.952Z,10.80
2019-01-18T10:43:04.505Z,10.07
2019-01-18T10:45:37.246Z,10.70
2019-01-18T10:48:07.646Z,10.57
2019-01-18T10:50:38.360Z,9.77
2019-01-18T10:53:10.182Z,10.37
2019-01-18T10:55:44.345Z,10.27
2019-01-18T10:58:14.681Z,9.70
2019-01-18T11:00:45.505Z,10.03
2019-01-18T11:03:16.310Z,11.13
2019-01-18T11:05:46.641Z,11.77
2019-01-18T11:08:17.567Z,11.40
2019-01-18T11:10:48.223Z,11.97
2019-01-18T11:13:18.687Z,11.07
2019-01-18T11:15:49.546Z,9.10
2019-01-18T11:18:19.898Z,8.93
2019-01-18T11:20:56.617Z,8.33
2019-01-18T11:23:27.109Z,7.37
2019-01-18T11:25:57.510Z,6.80
2019-01-18T11:28:27.917Z,5.70
2019-01-18T11:30:58.734Z,6.37
2019-01-18T11:33:29.487Z,6.53
2019-01-18T11:35:59.853Z,7.50
2019-01-18T11:38:30.173Z,7.80
2019-01-18T11:41:00.561Z,7.40
2019-01-18T11:43:30.867Z,8.77
2019-01-18T11:46:01.306Z,8.57
2019-01-18T11:48:31.865Z,9.43
2019-01-18T11:51:02.198Z,9.83
2019-01-18T11:53:32.591Z,10.10
2019-01-18T11:56:03.043Z,9.00
2019-01-18T11:58:33.324Z,8.93
2019-01-18T12:01:03.970Z,8.03
2019-01-18T12:03:34.362Z,8.20
2019-01-18T12:06:05.602Z,7.30
2019-01-18T12:08:35.927Z,7.17
2019-01-18T12:11:06.342Z,6.30
2019-01-18T12:13:37.114Z,6.40
2019-01-18T12:16:07.746Z,6.93
2019-01-18T12:18:38.187Z,6.20
2019-01-18T12:21:08.983Z,5.70
2019-01-18T12:23:39.293Z,5.67
2019-01-18T12:26:11.835Z,5.77
2019-01-18T12:28:42.210Z,5.17
2019-01-18T12:31:14.674Z,5.83
2019-01-18T12:33:45.060Z,5.80
2019-01-18T12:36:15.868Z,5.53
2019-01-18T12:38:46.278Z,5.80
2019-01-18T12:41:17.464Z,5.70
2019-01-18T12:43:47.909Z,5.80
2019-01-18T12:46:18.366Z,4.33
2019-01-18T12:48:48.683Z,5.00
2019-01-18T12:51:19.084Z,5.23
2019-01-18T12:53:51.897Z,6.57
2019-01-18T12:56:22.374Z,6.03
2019-01-18T12:58:56.448Z,5.60
2019-01-18T13:01:25.076Z,5.80
2019-01-18T13:03:55.570Z,6.07
2019-01-18T13:06:26.232Z,5.70
2019-01-18T13:08:56.960Z,7.40
2019-01-18T13:11:27.419Z,7.40
2019-01-18T13:13:58.028Z,7.43
2019-01-18T13:16:33.871Z,6.70
2019-01-18T13:19:09.761Z,8.00
2019-01-18T13:21:40.002Z,8.23
2019-01-18T13:24:10.314Z,7.57
2019-01-18T13:26:40.748Z,7.50
2019-01-18T13:29:11.205Z,7.87
2019-01-18T13:31:42.907Z,7.43
2019-01-18T13:34:13.117Z,7.80
2019-01-18T13:36:43.470Z,9.07
2019-01-18T13:39:17.696Z,8.80
2019-01-18T13:41:49.056Z,9.10
2019-01-18T13:44:19.833Z,9.77
2019-01-18T13:46:50.223Z,8.80
2019-01-18T13:49:20.793Z,6.83
2019-01-18T13:51:51.127Z,8.27
2019-01-18T13:54:21.803Z,8.30
2019-01-18T13:56:52.062Z,8.23
2019-01-18T13:59:22.535Z,8.60
2019-01-18T14:01:55.424Z,8.47
2019-01-18T14:04:25.803Z,8.33
2019-01-18T14:06:56.348Z,7.40
2019-01-18T14:09:26.779Z,8.70
2019-01-18T14:11:57.166Z,7.80
2019-01-18T14:14:27.552Z,8.07
2019-01-18T14:16:59.209Z,7.77
2019-01-18T14:19:30.325Z,7.57
2019-01-18T14:22:00.758Z,8.47
2019-01-18T14:24:31.184Z,8.93
2019-01-18T14:27:01.986Z,8.60
2019-01-18T14:29:32.445Z,9.23
2019-01-18T14:32:05.232Z,8.93
2019-01-18T14:34:35.548Z,8.80
2019-01-18T14:37:05.921Z,10.63
2019-01-18T14:39:36.348Z,9.77
2019-01-18T14:42:06.783Z,10.70
2019-01-18T14:44:38.012Z,10.30
2019-01-18T14:47:08.324Z,11.15
2019-01-18T14:49:38.830Z,11.30
2019-01-18T14:52:09.904Z,10.10
2019-01-18T14:54:40.736Z,9.43
2019-01-18T14:57:11.272Z,9.97
2019-01-18T14:59:43.388Z,11.00
2019-01-18T15:02:13.767Z,9.43
2019-01-18T15:04:48.461Z,8.93
2019-01-18T15:07:18.878Z,8.53
2019-01-18T15:09:49.416Z,9.20
2019-01-18T15:12:19.740Z,8.47
2019-01-18T15:14:50.153Z,8.50
2019-01-18T15:17:21.104Z,9.30
2019-01-18T15:19:51.450Z,8.77
2019-01-18T15:22:22.243Z,8.30
2019-01-18T15:24:52.507Z,8.53
2019-01-18T15:27:22.923Z,9.67
2019-01-18T15:29:53.509Z,9.87
2019-01-18T15:32:23.796Z,9.70
2019-01-18T15:34:55.043Z,10.33
2019-01-18T15:37:25.418Z,9.63
2019-01-18T15:39:59.840Z,9.90
2019-01-18T15:42:30.483Z,9.63
2019-01-18T15:45:01.253Z,10.20
2019-01-18T15:47:32.173Z,10.50
2019-01-18T15:50:02.500Z,11.10
2019-01-18T15:52:33.167Z,10.33
2019-01-18T15:55:03.952Z,10.23
2019-01-18T15:57:36.731Z,10.73
2019-01-18T16:00:11.075Z,11.00
2019-01-18T16:02:44.194Z,10.50
2019-01-18T16:05:15.001Z,12.23
2019-01-18T16:07:45.438Z,12.57
2019-01-18T16:10:16.677Z,12.30
2019-01-18T16:12:47.027Z,13.27
2019-01-18T16:15:18.087Z,13.73
2019-01-18T16:17:49.353Z,13.70
2019-01-18T16:20:20.928Z,13.90
2019-01-18T16:22:51.970Z,13.57
2019-01-18T16:25:29.364Z,13.37
2019-01-18T16:27:59.460Z,13.97
2019-01-18T16:30:29.934Z,14.13
2019-01-18T16:33:00.390Z,15.73
2019-01-18T16:35:30.742Z,15.07
2019-01-18T16:38:01.544Z,15.87
2019-01-18T16:40:33.198Z,15.30
2019-01-18T16:43:13.779Z,16.83
2019-01-18T16:45:44.438Z,17.27
2019-01-18T16:48:15.039Z,17.90
2019-01-18T16:50:45.278Z,20.23
2019-01-18T16:53:15.552Z,20.97
2019-01-18T16:55:45.981Z,19.87
2019-01-18T16:58:16.230Z,20.73
2019-01-18T17:00:47.696Z,20.43
2019-01-18T17:03:17.924Z,19.57
2019-01-18T17:05:48.182Z,20.77
2019-01-18T17:08:18.371Z,20.23
2019-01-18T17:10:48.666Z,20.03
2019-01-18T17:13:19.405Z,21.07
2019-01-18T17:15:49.652Z,22.87
2019-01-18T17:18:21.464Z,22.63
2019-01-18T17:20:51.908Z,23.97
2019-01-18T17:23:22.145Z,26.33
2019-01-18T17:25:52.385Z,33.63
2019-01-18T17:28:23.058Z,23.40
2019-01-18T17:30:53.230Z,23.80
2019-01-18T17:33:23.476Z,24.80
2019-01-18T17:36:03.843Z,24.00
2019-01-18T17:39:33.626Z,25.93
2019-01-18T17:42:47.026Z,25.20
2019-01-18T17:46:01.077Z,25.93
2019-01-18T17:49:11.280Z,24.73
2019-01-18T17:52:04.812Z,26.27
2019-01-18T17:55:00.295Z,25.90
2019-01-18T17:58:04.559Z,26.20
2019-01-18T18:01:29.701Z,27.53
2019-01-18T18:04:55.339Z,28.33
2019-01-18T18:07:44.956Z,25.83
2019-01-18T18:10:45.219Z,27.63
2019-01-18T18:13:47.717Z,26.40
2019-01-18T18:17:03.439Z,30.03
2019-01-18T18:20:22.582Z,27.27
2019-01-18T18:23:35.484Z,26.07
2019-01-18T18:26:37.234Z,26.33
2019-01-18T18:29:44.337Z,25.53
2019-01-18T18:32:49.015Z,27.80
2019-01-18T18:35:54.729Z,31.60
2019-01-18T18:39:17.789Z,25.00
2019-01-18T18:42:47.464Z,25.40
2019-01-18T18:45:38.351Z,24.57
2019-01-18T18:48:30.120Z,25.90
2019-01-18T18:51:49.555Z,27.67
2019-01-18T18:54:31.788Z,25.63
2019-01-18T18:57:43.441Z,25.90
2019-01-18T19:00:47.481Z,25.53
2019-01-18T19:03:49.376Z,24.67
2019-01-18T19:07:04.030Z,24.47
2019-01-18T19:10:00.174Z,24.63
2019-01-18T19:13:09.954Z,23.90
2019-01-18T19:16:33.944Z,23.43
2019-01-18T19:19:24.265Z,24.00
2019-01-18T19:22:21.469Z,23.60
2019-01-18T19:25:14.498Z,23.33
2019-01-18T19:28:19.300Z,22.43
2019-01-18T19:31:26.226Z,22.10
2019-01-18T19:34:38.406Z,21.80
2019-01-18T19:37:46.874Z,21.17
2019-01-18T19:40:29.798Z,21.10
2019-01-18T19:43:36.000Z,20.60
2019-01-18T19:46:43.192Z,20.83
2019-01-18T19:49:37.764Z,19.03
2019-01-18T19:52:25.823Z,19.30
2019-01-18T19:55:40.197Z,19.80
2019-01-18T19:58:54.639Z,19.50
2019-01-18T20:01:44.423Z,19.33
2019-01-18T20:04:42.860Z,19.40
2019-01-18T20:07:45.551Z,19.50
2019-01-18T20:10:58.783Z,19.40
2019-01-18T20:14:09.870Z,20.17
2019-01-18T20:17:26.367Z,19.77
2019-01-18T20:20:06.419Z,20.27
2019-01-18T20:23:13.502Z,20.27
2019-01-18T20:26:42.830Z,19.57
2019-01-18T20:30:03.524Z,21.40
2019-01-18T20:33:24.531Z,20.53
2019-01-18T20:36:39.219Z,22.43
2019-01-18T20:39:42.964Z,23.07
2019-01-18T20:42:42.039Z,22.10
2019-01-18T20:46:02.418Z,22.40
2019-01-18T20:48:58.209Z,23.10
2019-01-18T20:52:04.607Z,23.03
2019-01-18T20:55:21.776Z,22.17
2019-01-18T20:58:58.176Z,22.50
2019-01-18T21:01:58.528Z,21.90
2019-01-18T21:04:55.247Z,22.20
2019-01-18T21:07:53.223Z,21.27
2019-01-18T21:10:33.280Z,20.83
2019-01-18T21:13:34.853Z,21.17
2019-01-18T21:16:36.608Z,22.73
2019-01-18T21:19:46.442Z,22.07
2019-01-18T21:22:58.725Z,22.87
2019-01-18T21:25:59.649Z,21.67
2019-01-18T21:29:02.966Z,21.87
2019-01-18T21:32:14.416Z,21.60
2019-01-18T21:34:59.906Z,20.70
2019-01-18T21:38:13.815Z,22.77
2019-01-18T21:41:15.000Z,22.03
2019-01-18T21:44:20.122Z,22.73
2019-01-18T21:48:02.145Z,22.30
2019-01-18T21:51:14.413Z,22.60
2019-01-18T21:53:50.059Z,20.67
2019-01-18T21:57:02.418Z,20.03
2019-01-18T22:00:04.925Z,19.10
2019-01-18T22:02:53.246Z,20.90
2019-01-18T22:06:14.630Z,19.43
2019-01-18T22:09:22.518Z,19.40
2019-01-18T22:12:39.288Z,20.00
2019-01-18T22:15:27.571Z,19.93
2019-01-18T22:18:23.211Z,18.90
2019-01-18T22:21:52.838Z,20.13
2019-01-18T22:25:06.387Z,17.63
2019-01-18T22:27:54.929Z,18.33
2019-01-18T22:31:11.967Z,17.57
2019-01-18T22:34:05.308Z,19.23
2019-01-18T22:36:53.202Z,18.33
2019-01-18T22:40:10.321Z,17.63
2019-01-18T22:43:30.696Z,17.87
2019-01-18T22:46:50.948Z,17.73
2019-01-18T22:49:55.771Z,17.63
2019-01-18T22:53:04.379Z,18.37
2019-01-18T22:55:55.092Z,18.27
2019-01-18T22:58:56.991Z,19.10
2019-01-18T23:01:53.526Z,18.33
2019-01-18T23:05:04.097Z,19.67
2019-01-18T23:08:24.946Z,18.60
2019-01-18T23:11:29.984Z,17.27
2019-01-18T23:14:41.108Z,17.53
2019-01-18T23:17:58.140Z,18.13
2019-01-18T23:21:15.661Z,17.10
2019-01-18T23:24:17.630Z,17.00
2019-01-18T23:27:19.460Z,17.93
2019-01-18T23:30:06.348Z,18.40
2019-01-18T23:33:18.234Z,17.30
2019-01-18T23:36:20.155Z,18.17
2019-01-18T23:39:33.206Z,17.90
2019-01-18T23:42:40.498Z,18.37
2019-01-18T23:45:41.200Z,18.13
2019-01-18T23:48:54.915Z,18.37
2019-01-18T23:52:00.242Z,18.67
2019-01-18T23:54:54.945Z,18.97
2019-01-18T23:58:11.572Z,18.27
